Time;durP1;ratioP1;P1;durP2;ratioP2;P2;SDS_P1;SDS_P2;PMS_P1;PMS_P2;Temp;Humidity;BMP_temperature;BMP_pressure;BME280_temperature;BME280_humidity;BME280_pressure;Samples;Min_cycle;Max_cycle;Signal;HPM_P1;HPM_P2
2023/10/20 00:01:09;;;;;;;5.78;3.15;;;;;;;6.99;100.00;99165.25;4895899;29;20048;-77
2023/10/20 00:03:37;;;;;;;4.93;3.95;;;;;;;7.02;100.00;99157.38;4932817;29;20051;-77
2023/10/20 00:06:05;;;;;;;4.22;3.55;;;;;;;7.04;100.00;99153.00;4886502;29;20059;-77
2023/10/20 00:08:32;;;;;;;3.40;2.53;;;;;;;7.03;100.00;99167.84;4932154;29;20055;-76
2023/10/20 00:11:04;;;;;;;5.32;3.15;;;;;;;7.05;100.00;99186.19;4912664;29;21067;-77
2023/10/20 00:13:32;;;;;;;3.95;3.20;;;;;;;7.07;100.00;99186.16;4941568;28;20051;-77
2023/10/20 00:16:00;;;;;;;4.43;3.63;;;;;;;7.10;100.00;99188.75;4947592;29;20051;-77
2023/10/20 00:18:28;;;;;;;5.18;3.55;;;;;;;7.10;100.00;99192.22;4932357;29;20058;-77
2023/10/20 00:20:55;;;;;;;3.95;3.50;;;;;;;7.10;100.00;99183.50;4897851;29;20062;-76
2023/10/20 00:23:22;;;;;;;3.53;3.20;;;;;;;7.11;100.00;99185.25;4915145;29;20607;-77
2023/10/20 00:25:50;;;;;;;4.00;3.25;;;;;;;7.13;100.00;99194.84;4920874;29;20417;-77
2023/10/20 00:28:17;;;;;;;4.57;3.42;;;;;;;7.14;100.00;99201.78;4929213;29;20055;-76
2023/10/20 00:30:45;;;;;;;4.82;3.78;;;;;;;7.14;100.00;99193.06;4922416;29;20076;-77
2023/10/20 00:33:12;;;;;;;5.10;3.60;;;;;;;7.15;100.00;99192.19;4946267;29;20043;-77
2023/10/20 00:35:40;;;;;;;4.03;3.65;;;;;;;7.15;100.00;99187.81;4857140;29;20497;-76
2023/10/20 00:38:07;;;;;;;4.60;3.70;;;;;;;7.15;100.00;99168.63;4946211;29;20047;-78
2023/10/20 00:40:34;;;;;;;3.95;3.50;;;;;;;7.14;100.00;99167.72;4906418;29;20055;-78
2023/10/20 00:43:02;;;;;;;3.97;3.58;;;;;;;7.12;100.00;99145.94;4923868;29;20050;-77
2023/10/20 00:45:29;;;;;;;3.00;2.65;;;;;;;7.10;100.00;99145.06;4932919;29;20062;-77
2023/10/20 00:47:57;;;;;;;3.67;3.38;;;;;;;7.11;100.00;99145.97;4899138;29;20051;-76
2023/10/20 00:50:25;;;;;;;3.10;2.80;;;;;;;7.08;100.00;99136.38;4915688;29;20094;-77
2023/10/20 00:52:52;;;;;;;3.67;3.38;;;;;;;7.11;100.00;99135.50;4889284;29;20043;-77
2023/10/20 00:55:21;;;;;;;3.88;3.13;;;;;;;7.11;100.00;99128.50;4889508;28;20055;-78
2023/10/20 00:57:50;;;;;;;3.25;3.00;;;;;;;7.13;100.00;99120.63;4949808;29;20064;-77
2023/10/20 01:00:17;;;;;;;4.30;3.55;;;;;;;7.14;100.00;99125.81;4876744;28;20059;-77
2023/10/20 01:02:44;;;;;;;6.80;3.53;;;;;;;7.17;100.00;99124.94;4914740;29;20071;-77
2023/10/20 01:05:19;;;;;;;6.75;3.85;;;;;;;7.17;100.00;99117.09;4944806;29;20460;-77
2023/10/20 01:07:46;;;;;;;4.10;3.10;;;;;;;7.17;100.00;99110.09;4885923;29;20520;-77
2023/10/20 01:10:14;;;;;;;3.35;3.05;;;;;;;7.19;100.00;99110.94;4927451;28;20047;-77
2023/10/20 01:12:42;;;;;;;5.72;3.25;;;;;;;7.21;100.00;99111.78;4896546;29;20056;-76
2023/10/20 01:15:12;;;;;;;5.07;3.90;;;;;;;7.21;100.00;99121.41;4928785;29;20043;-78
2023/10/20 01:17:40;;;;;;;8.48;4.18;;;;;;;7.19;100.00;99113.56;4931579;28;20059;-77
2023/10/20 01:20:09;;;;;;;7.22;4.70;;;;;;;7.17;100.00;99109.22;4932225;29;20042;-77
2023/10/20 01:22:36;;;;;;;7.30;5.25;;;;;;;7.15;100.00;99101.38;4868961;29;20055;-77
2023/10/20 01:25:04;;;;;;;8.15;5.47;;;;;;;7.13;100.00;99097.06;4915000;28;20051;-77
2023/10/20 01:27:32;;;;;;;8.23;5.45;;;;;;;7.13;100.00;99102.28;4914463;29;20520;-77
2023/10/20 01:29:59;;;;;;;11.45;6.10;;;;;;;7.11;100.00;99090.97;4928081;29;20052;-77
2023/10/20 01:32:26;;;;;;;8.88;6.57;;;;;;;7.08;100.00;99070.88;4905969;29;20051;-77
2023/10/20 01:34:54;;;;;;;12.57;7.80;;;;;;;7.06;100.00;99070.03;4913929;29;20055;-77
2023/10/20 01:37:21;;;;;;;14.13;7.50;;;;;;;7.06;100.00;99063.94;4947476;28;20134;-77
2023/10/20 01:39:48;;;;;;;12.38;6.93;;;;;;;7.05;100.00;99051.72;4889175;29;20062;-76
2023/10/20 01:42:16;;;;;;;10.77;7.53;;;;;;;7.02;100.00;99044.78;4921425;29;20043;-78
2023/10/20 01:44:43;;;;;;;10.88;7.85;;;;;;;7.00;100.00;99041.31;4915590;29;20505;-78
2023/10/20 01:47:11;;;;;;;12.68;7.88;;;;;;;7.00;100.00;99042.16;4939567;28;20047;-77
2023/10/20 01:49:38;;;;;;;15.20;8.60;;;;;;;7.00;100.00;99044.78;4933626;29;20035;-78
2023/10/20 01:52:07;;;;;;;18.85;9.30;;;;;;;6.97;100.00;99050.03;4914445;29;20043;-77
2023/10/20 01:54:35;;;;;;;13.88;9.90;;;;;;;6.96;100.00;99048.31;4906051;28;20048;-78
2023/10/20 01:57:02;;;;;;;22.88;10.18;;;;;;;6.95;100.00;99043.09;4891661;28;20047;-77
2023/10/20 01:59:29;;;;;;;21.88;11.00;;;;;;;6.95;100.00;99049.19;4914014;29;20047;-77
2023/10/20 02:01:57;;;;;;;16.40;10.15;;;;;;;6.96;100.00;99060.56;4924131;28;20062;-77
2023/10/20 02:04:25;;;;;;;17.33;9.00;;;;;;;6.94;100.00;99062.34;4916448;29;20062;-78
2023/10/20 02:06:52;;;;;;;21.33;11.40;;;;;;;6.92;100.00;99064.97;4951464;29;20051;-78
2023/10/20 02:09:20;;;;;;;20.65;10.85;;;;;;;6.94;100.00;99083.28;4915985;29;20503;-77
2023/10/20 02:11:47;;;;;;;21.08;10.82;;;;;;;6.94;100.00;99065.81;4888936;28;20493;-77
2023/10/20 02:14:14;;;;;;;21.35;10.95;;;;;;;6.92;100.00;99072.81;4924233;29;20055;-77
2023/10/20 02:16:42;;;;;;;21.20;11.32;;;;;;;6.91;100.00;99075.44;4949421;29;20524;-77
2023/10/20 02:19:10;;;;;;;19.50;10.32;;;;;;;6.89;100.00;99078.06;4912703;29;20039;-77
2023/10/20 02:21:38;;;;;;;23.92;10.98;;;;;;;6.87;100.00;99077.22;4932914;29;20047;-78
2023/10/20 02:24:07;;;;;;;20.05;11.13;;;;;;;6.86;100.00;99070.25;4930595;29;20048;-77
2023/10/20 02:26:35;;;;;;;19.30;10.40;;;;;;;6.85;100.00;99079.00;4894992;29;20058;-78
2023/10/20 02:29:03;;;;;;;20.58;10.70;;;;;;;6.87;100.00;99079.84;4904976;29;20055;-77
2023/10/20 02:31:31;;;;;;;17.38;10.55;;;;;;;6.88;100.00;99076.34;4931403;29;20056;-77
2023/10/20 02:33:59;;;;;;;21.65;10.88;;;;;;;6.88;100.00;99067.59;4927127;29;20412;-77
2023/10/20 02:36:26;;;;;;;20.92;11.10;;;;;;;6.87;100.00;99061.50;4934202;29;20050;-76
2023/10/20 02:38:55;;;;;;;18.20;10.93;;;;;;;6.88;100.00;99044.94;4931291;29;20526;-79
2023/10/20 02:41:22;;;;;;;21.30;12.10;;;;;;;6.87;100.00;99045.81;4904444;28;20627;-77
2023/10/20 02:43:49;;;;;;;18.25;10.98;;;;;;;6.89;100.00;99058.88;4939305;28;20055;-77
2023/10/20 02:46:16;;;;;;;15.98;10.00;;;;;;;6.85;100.00;99076.38;4897455;29;20036;-77
2023/10/20 02:48:46;;;;;;;17.33;10.30;;;;;;;6.82;100.00;99048.50;4915332;28;20416;-77
2023/10/20 02:51:15;;;;;;;22.15;10.85;;;;;;;6.83;100.00;99042.34;4922472;29;20132;-77
2023/10/20 02:53:43;;;;;;;20.77;10.48;;;;;;;6.82;100.00;99051.09;4930400;29;20055;-78
2023/10/20 02:56:18;;;;;;;19.25;9.50;;;;;;;6.82;100.00;99039.75;4881546;28;20787;-78
2023/10/20 02:58:46;;;;;;;14.18;10.10;;;;;;;6.82;100.00;99044.97;4937194;29;20052;-77
2023/10/20 03:01:17;;;;;;;17.52;9.30;;;;;;;6.82;100.00;99042.34;4924567;28;20051;-77
2023/10/20 03:03:45;;;;;;;15.40;8.18;;;;;;;6.80;100.00;99023.19;4934078;28;20336;-77
2023/10/20 03:06:13;;;;;;;17.25;9.07;;;;;;;6.79;100.00;99037.19;4920793;29;20579;-78
2023/10/20 03:08:40;;;;;;;16.00;8.95;;;;;;;6.80;100.00;99005.72;4925442;28;20047;-77
2023/10/20 03:11:09;;;;;;;14.27;9.15;;;;;;;6.79;100.00;98993.53;4930647;29;20500;-78
2023/10/20 03:13:37;;;;;;;9.88;7.43;;;;;;;6.80;100.00;98994.38;4891145;29;20393;-77
2023/10/20 03:16:05;;;;;;;13.65;8.40;;;;;;;6.82;100.00;99001.34;4912860;29;20059;-77
2023/10/20 03:18:33;;;;;;;14.85;8.20;;;;;;;6.82;100.00;98969.94;4943368;29;20070;-77
2023/10/20 03:21:02;;;;;;;12.77;7.95;;;;;;;6.81;100.00;98970.81;4903337;29;20035;-77
2023/10/20 03:23:32;;;;;;;15.38;8.50;;;;;;;6.83;100.00;98991.75;4929662;29;20420;-77
2023/10/20 03:26:00;;;;;;;15.82;8.40;;;;;;;6.86;100.00;98977.75;4917379;29;20047;-78
2023/10/20 03:28:28;;;;;;;12.27;7.78;;;;;;;6.88;100.00;98984.72;4892353;29;20043;-77
2023/10/20 03:30:55;;;;;;;11.25;7.82;;;;;;;6.88;100.00;98979.47;4932219;28;20055;-77
2023/10/20 03:33:23;;;;;;;12.80;7.03;;;;;;;6.87;100.00;98958.53;4930505;29;20051;-77
2023/10/20 03:36:03;;;;;;;11.23;7.40;;;;;;;6.87;100.00;98951.53;4919878;28;20137;-77
2023/10/20 03:38:31;;;;;;;11.70;7.55;;;;;;;6.89;100.00;98946.28;4928676;29;20047;-76
2023/10/20 03:41:11;;;;;;;10.57;7.70;;;;;;;6.91;100.00;98941.91;4915561;29;20054;-77
2023/10/20 03:43:39;;;;;;;10.73;6.68;;;;;;;6.90;100.00;98938.44;4882095;29;20051;-77
2023/10/20 03:46:06;;;;;;;10.07;6.82;;;;;;;6.90;100.00;98930.56;4915040;29;20043;-77
2023/10/20 03:48:35;;;;;;;7.07;6.25;;;;;;;6.89;100.00;98920.97;4909252;29;20068;-77
2023/10/20 03:51:05;;;;;;;8.75;6.60;;;;;;;6.90;100.00;98920.09;4921618;29;20055;-77
2023/10/20 03:53:44;;;;;;;11.55;7.32;;;;;;;6.90;100.00;98920.09;4916742;29;20519;-77
2023/10/20 03:56:11;;;;;;;11.13;6.75;;;;;;;6.92;100.00;98905.22;4918263;29;20051;-77
2023/10/20 03:58:42;;;;;;;11.32;6.15;;;;;;;6.89;100.00;98892.16;4872801;29;20060;-78
2023/10/20 04:01:09;;;;;;;8.70;6.05;;;;;;;6.88;100.00;98900.94;4911026;28;20054;-76
2023/10/20 04:03:38;;;;;;;8.27;5.70;;;;;;;6.87;100.00;98882.63;4902913;29;20055;-78
2023/10/20 04:06:09;;;;;;;10.60;6.35;;;;;;;6.87;100.00;98883.47;4943429;28;20051;-77
2023/10/20 04:08:36;;;;;;;13.50;5.43;;;;;;;6.88;100.00;98882.59;4910103;29;20055;-77
2023/10/20 04:11:03;;;;;;;6.75;5.13;;;;;;;6.88;100.00;98885.22;4947434;29;20051;-77
2023/10/20 04:13:32;;;;;;;7.28;5.13;;;;;;;6.89;100.00;98873.84;4895034;28;20058;-76
2023/10/20 04:16:12;;;;;;;5.85;5.15;;;;;;;6.89;100.00;98881.69;4946169;29;20070;-77
2023/10/20 04:18:41;;;;;;;7.53;4.97;;;;;;;6.88;100.00;98863.38;4941097;28;20054;-79
2023/10/20 04:21:11;;;;;;;8.20;5.07;;;;;;;6.88;100.00;98864.28;4909019;28;20043;-77
2023/10/20 04:23:40;;;;;;;;;;;;;;;6.88;100.00;98869.50;4907723;29;20071;-78
2023/10/20 04:26:18;;;;;;;7.88;4.55;;;;;;;6.88;100.00;98874.75;4929954;29;19927;-78
2023/10/20 04:28:48;;;;;;;7.60;4.65;;;;;;;6.88;100.00;98890.44;4916308;29;20055;-77
2023/10/20 05:01:30;;;;;;;3.42;3.13;;;;;;;7.07;100.00;98856.13;4898809;28;20048;-76
2023/10/20 05:03:58;;;;;;;4.93;3.08;;;;;;;7.06;100.00;98868.38;4931072;28;20047;-77
2023/10/20 05:06:26;;;;;;;6.55;3.75;;;;;;;7.08;100.00;98855.25;4913194;29;20067;-78
2023/10/20 05:08:54;;;;;;;4.70;3.22;;;;;;;7.10;100.00;98837.75;4889041;29;20047;-77
2023/10/20 05:11:21;;;;;;;3.50;3.20;;;;;;;7.13;100.00;98829.88;4923498;28;20043;-77
2023/10/20 05:13:49;;;;;;;5.68;3.15;;;;;;;7.11;100.00;98818.56;4908681;29;20055;-78
2023/10/20 05:16:17;;;;;;;6.13;2.88;;;;;;;7.09;100.00;98828.16;4930641;28;20051;-78
2023/10/20 05:18:44;;;;;;;2.60;2.05;;;;;;;7.08;100.00;98805.50;4886139;28;20047;-77
2023/10/20 05:21:12;;;;;;;2.55;1.88;;;;;;;7.06;100.00;98834.31;4912247;29;20050;-76
2023/10/20 05:23:41;;;;;;;6.75;2.10;;;;;;;7.03;100.00;98826.50;4918355;28;20496;-78
2023/10/20 05:26:09;;;;;;;3.80;1.88;;;;;;;7.02;100.00;98838.75;4935410;28;20043;-78
2023/10/20 05:28:37;;;;;;;4.00;1.50;;;;;;;7.00;100.00;98864.09;4939523;29;20062;-77
2023/10/20 05:31:04;;;;;;;2.20;1.80;;;;;;;6.99;100.00;98836.19;4916403;29;20070;-77
2023/10/20 05:33:31;;;;;;;7.60;1.90;;;;;;;6.98;100.00;98836.19;4910853;28;20055;-76
2023/10/20 05:36:01;;;;;;;3.20;2.10;;;;;;;6.97;100.00;98847.53;4898095;29;20054;-77
2023/10/20 05:38:28;;;;;;;4.70;1.80;;;;;;;6.97;100.00;98837.06;4899576;28;20547;-76
2023/10/20 05:40:58;;;;;;;1.75;1.65;;;;;;;6.97;100.00;98837.06;4890144;29;20049;-78
2023/10/20 05:43:26;;;;;;;6.80;3.20;;;;;;;6.95;100.00;98828.38;4918491;29;20058;-76
2023/10/20 05:45:53;;;;;;;3.33;2.13;;;;;;;6.94;100.00;98830.13;4895088;29;20043;-77
2023/10/20 05:48:21;;;;;;;4.68;2.13;;;;;;;6.93;100.00;98836.25;4911092;29;20066;-77
2023/10/20 05:50:56;;;;;;;2.33;1.90;;;;;;;6.94;100.00;98851.09;4880997;29;20070;-77
2023/10/20 05:53:26;;;;;;;3.65;2.33;;;;;;;6.94;100.00;98827.53;4896801;28;20051;-77
2023/10/20 05:55:53;;;;;;;3.30;2.20;;;;;;;6.92;100.00;98834.53;4912783;29;20055;-77
2023/10/20 05:58:22;;;;;;;4.28;2.42;;;;;;;6.94;100.00;98816.19;4908511;28;20066;-77
2023/10/20 06:00:49;;;;;;;4.13;2.70;;;;;;;6.94;100.00;98818.81;4904395;29;20062;-78
2023/10/20 06:03:29;;;;;;;2.95;2.38;;;;;;;6.90;100.00;98809.25;4912649;29;20054;-78
2023/10/20 06:05:58;;;;;;;2.40;2.00;;;;;;;6.87;100.00;98801.44;4873808;29;20070;-77
2023/10/20 06:08:28;;;;;;;2.35;2.15;;;;;;;6.86;100.00;98797.94;4917693;29;20516;-77
2023/10/20 06:11:04;;;;;;;2.70;2.50;;;;;;;6.85;100.00;98785.75;4885423;29;20048;-78
2023/10/20 06:13:34;;;;;;;3.97;2.35;;;;;;;6.84;100.00;98799.72;4927503;28;20051;-77
2023/10/20 06:16:10;;;;;;;3.83;2.60;;;;;;;6.82;100.00;98793.66;4943309;29;20610;-78
2023/10/20 06:18:40;;;;;;;2.72;2.53;;;;;;;6.78;100.00;98791.97;4927307;29;20063;-77
2023/10/20 06:21:19;;;;;;;2.53;2.33;;;;;;;6.77;100.00;98805.97;4895179;29;20051;-78
2023/10/20 06:23:47;;;;;;;3.85;2.72;;;;;;;6.74;100.00;98777.19;4927222;28;20039;-77
2023/10/20 06:26:15;;;;;;;3.60;2.40;;;;;;;6.74;100.00;98764.09;4928708;29;20059;-77
2023/10/20 06:28:43;;;;;;;3.85;2.53;;;;;;;6.73;100.00;98744.03;4913722;29;20067;-77
2023/10/20 06:32:09;;;;;;;3.78;2.75;;;;;;;6.70;100.00;98733.63;4928362;29;20436;-78
2023/10/20 06:34:17;;;;;;;3.58;2.67;;;;;;;6.69;100.00;98758.06;4927106;29;20066;-78
2023/10/20 06:36:48;;;;;;;3.22;2.42;;;;;;;6.66;100.00;98766.84;4898817;29;20066;-76
2023/10/20 06:39:18;;;;;;;;;;;;;;;6.66;100.00;98790.41;4941111;28;20066;-77
2023/10/20 06:41:47;;;;;;;5.65;3.53;;;;;;;6.65;100.00;98770.31;4935566;28;19922;-77
2023/10/20 06:44:19;;;;;;;3.38;2.50;;;;;;;6.64;100.00;98784.31;4918326;29;20052;-77
2023/10/20 06:46:47;;;;;;;4.25;2.50;;;;;;;6.65;100.00;98783.41;4928704;29;20070;-76
2023/10/20 06:49:18;;;;;;;2.75;2.55;;;;;;;6.63;100.00;98798.28;4921935;29;20062;-79
2023/10/20 06:51:47;;;;;;;2.65;2.45;;;;;;;6.62;100.00;98822.72;4884903;28;20520;-78
2023/10/20 06:54:16;;;;;;;4.30;2.72;;;;;;;6.59;100.00;98823.63;4899627;28;20555;-79
2023/10/20 06:56:44;;;;;;;3.33;2.90;;;;;;;6.59;100.00;98810.53;4922363;29;20062;-77
2023/10/20 06:59:15;;;;;;;2.22;2.08;;;;;;;6.59;100.00;98791.34;4940848;28;20058;-78
2023/10/20 07:01:43;;;;;;;4.18;2.45;;;;;;;6.58;100.00;98798.34;4952283;29;20055;-79
2023/10/20 07:04:12;;;;;;;3.80;2.03;;;;;;;6.58;100.00;98793.13;4895258;28;20065;-80
2023/10/20 07:06:40;;;;;;;3.17;2.05;;;;;;;6.57;100.00;98782.66;4935085;29;20059;-78
2023/10/20 07:09:11;;;;;;;3.17;1.80;;;;;;;6.57;100.00;98800.97;4882956;28;20071;-77
2023/10/20 07:11:39;;;;;;;2.20;2.00;;;;;;;6.59;100.00;98789.59;4922152;29;20055;-77
2023/10/20 07:14:07;;;;;;;1.60;1.50;;;;;;;6.59;100.00;98788.75;4910493;28;20062;-78
2023/10/20 07:16:34;;;;;;;2.03;1.90;;;;;;;6.56;100.00;98784.44;4915294;29;20055;-79
2023/10/20 07:19:03;;;;;;;1.90;1.67;;;;;;;6.57;100.00;98798.38;4906688;29;20227;-79
2023/10/20 07:21:31;;;;;;;2.83;1.58;;;;;;;6.55;100.00;98798.38;4905768;29;20059;-78
2023/10/20 07:23:58;;;;;;;1.90;1.70;;;;;;;6.54;100.00;98796.66;4848745;28;20051;-78
2023/10/20 07:26:26;;;;;;;1.65;1.52;;;;;;;6.54;100.00;98794.06;4906477;29;20059;-78
2023/10/20 07:28:53;;;;;;;4.10;1.50;;;;;;;6.52;100.00;98795.81;4916707;28;20058;-78
2023/10/20 07:31:23;;;;;;;3.97;2.08;;;;;;;6.52;100.00;98777.50;4917664;29;20056;-80
2023/10/20 07:33:50;;;;;;;1.65;1.55;;;;;;;6.51;100.00;98770.53;4922107;29;20056;-77
2023/10/20 07:36:18;;;;;;;2.30;1.70;;;;;;;6.52;100.00;98771.38;4904241;29;20066;-79
2023/10/20 07:38:46;;;;;;;2.97;2.00;;;;;;;6.52;100.00;98782.75;4903184;28;20835;-77
2023/10/20 07:41:14;;;;;;;1.98;1.83;;;;;;;6.50;100.00;98778.41;4906325;29;20066;-79
2023/10/20 07:43:41;;;;;;;4.47;1.95;;;;;;;6.49;100.00;98777.53;4909717;29;20493;-78
2023/10/20 07:46:18;;;;;;;3.72;2.25;;;;;;;6.50;100.00;98765.31;4925270;29;20500;-79
2023/10/20 07:48:45;;;;;;;3.80;2.17;;;;;;;6.50;100.00;98763.56;4926264;29;20058;-78
2023/10/20 07:51:13;;;;;;;1.50;1.05;;;;;;;6.49;100.00;98776.69;4909841;28;20051;-79
2023/10/20 07:53:40;;;;;;;2.40;1.52;;;;;;;6.50;100.00;98773.16;4908365;29;20050;-78
2023/10/20 07:56:08;;;;;;;1.98;1.80;;;;;;;6.50;100.00;98758.31;4912262;28;20055;-77
2023/10/20 07:58:35;;;;;;;3.20;1.90;;;;;;;6.50;100.00;98768.78;4901923;28;20078;-79
2023/10/20 08:01:03;;;;;;;1.77;1.52;;;;;;;6.48;100.00;98749.63;4925505;29;20043;-78
2023/10/20 08:03:30;;;;;;;2.17;1.65;;;;;;;6.45;100.00;98741.84;4904269;28;20055;-79
2023/10/20 08:06:02;;;;;;;1.98;1.58;;;;;;;6.46;100.00;98727.84;4920190;29;20051;-78
2023/10/20 08:08:32;;;;;;;7.03;1.42;;;;;;;6.44;100.00;98745.31;4909458;29;20056;-79
2023/10/20 08:11:03;;;;;;;2.33;1.60;;;;;;;6.49;100.00;98730.44;4902340;28;20043;-78
2023/10/20 08:13:32;;;;;;;2.47;1.63;;;;;;;6.52;100.00;98735.63;4909078;28;20560;-79
2023/10/20 08:16:03;;;;;;;2.08;1.73;;;;;;;6.52;100.00;98743.50;4915057;29;20039;-78
2023/10/20 08:18:33;;;;;;;5.28;1.83;;;;;;;6.53;100.00;98733.88;4918567;29;20039;-78
2023/10/20 08:21:07;;;;;;;1.90;1.75;;;;;;;6.49;100.00;98751.38;4898814;29;20071;-78
2023/10/20 08:23:38;;;;;;;4.22;1.50;;;;;;;6.48;100.00;98744.41;4888814;28;20046;-78
2023/10/20 08:26:06;;;;;;;4.22;1.50;;;;;;;6.47;100.00;98742.69;4876081;29;20055;-78
2023/10/20 08:28:33;;;;;;;2.20;1.60;;;;;;;6.45;100.00;98734.00;4919289;28;20059;-78
2023/10/20 08:31:08;;;;;;;1.77;1.38;;;;;;;6.42;100.00;98728.78;4906345;29;20043;-78
2023/10/20 08:33:36;;;;;;;1.60;1.50;;;;;;;6.44;100.00;98735.72;4913030;29;20039;-78
2023/10/20 08:36:15;;;;;;;1.48;1.38;;;;;;;6.40;100.00;98731.41;4933185;29;20067;-78
2023/10/20 08:38:45;;;;;;;4.97;1.50;;;;;;;6.36;100.00;98744.56;4905462;28;20551;-77
2023/10/20 08:41:14;;;;;;;1.27;1.20;;;;;;;6.31;100.00;98715.84;4917426;28;20051;-79
2023/10/20 08:43:43;;;;;;;1.90;1.30;;;;;;;6.27;100.00;98723.78;4911232;28;20294;-78
2023/10/20 08:46:12;;;;;;;2.13;1.50;;;;;;;6.25;100.00;98732.50;4938181;28;20417;-78
2023/10/20 08:48:41;;;;;;;3.88;1.45;;;;;;;6.23;100.00;98718.56;4940095;28;20456;-78
2023/10/20 08:51:12;;;;;;;1.95;1.83;;;;;;;6.24;100.00;98730.78;4950434;29;20054;-78
2023/10/20 08:53:41;;;;;;;;;;;;;;;6.22;100.00;98721.22;4909980;28;20059;-77
2023/10/20 08:56:11;;;;;;;2.25;1.70;;;;;;;6.19;100.00;98713.41;4942797;28;19926;-79
2023/10/20 08:58:39;;;;;;;2.90;2.63;;;;;;;6.15;100.00;98717.81;4898240;28;20047;-77
2023/10/20 09:01:06;;;;;;;2.95;1.88;;;;;;;6.16;100.00;98719.56;4924330;28;20058;-78
2023/10/20 09:03:45;;;;;;;3.38;2.20;;;;;;;6.14;100.00;98705.59;4920815;29;20059;-77
2023/10/20 09:06:16;;;;;;;2.90;2.10;;;;;;;6.13;100.00;98703.91;4916016;29;20058;-78
2023/10/20 09:08:49;;;;;;;3.38;1.80;;;;;;;6.11;100.00;98725.72;4907277;28;20043;-78
2023/10/20 09:11:19;;;;;;;2.67;1.73;;;;;;;6.05;100.00;98701.38;4922025;29;20397;-78
2023/10/20 09:13:47;;;;;;;3.40;1.90;;;;;;;6.02;100.00;98704.03;4863353;28;20517;-78
2023/10/20 09:16:15;;;;;;;4.50;1.58;;;;;;;5.98;100.00;98701.47;4900150;29;20044;-78
2023/10/20 09:18:45;;;;;;;3.50;1.90;;;;;;;5.98;100.00;98701.47;4923570;28;20433;-78
2023/10/20 09:21:14;;;;;;;1.73;1.40;;;;;;;5.98;100.00;98689.28;4931226;29;20055;-77
2023/10/20 09:23:57;;;;;;;2.25;1.40;;;;;;;6.00;100.00;98704.94;4929641;29;20055;-78
2023/10/20 09:26:26;;;;;;;4.10;1.75;;;;;;;6.01;100.00;98691.84;4924307;29;20043;-78
2023/10/20 09:28:56;;;;;;;1.48;1.33;;;;;;;5.98;100.00;98702.34;4873484;28;20995;-78
2023/10/20 09:31:26;;;;;;;3.58;1.67;;;;;;;5.96;100.00;98693.66;4910383;29;20425;-80
2023/10/20 09:33:54;;;;;;;2.00;1.67;;;;;;;5.97;100.00;98694.50;4891436;28;20043;-78
2023/10/20 09:36:25;;;;;;;1.50;1.40;;;;;;;5.97;100.00;98684.94;4916382;29;20058;-79
2023/10/20 09:38:55;;;;;;;2.92;1.90;;;;;;;5.95;100.00;98677.94;4946155;29;20635;-79
2023/10/20 09:41:25;;;;;;;3.05;1.60;;;;;;;5.95;100.00;98677.94;4914475;29;20421;-78
2023/10/20 09:44:06;;;;;;;3.25;1.45;;;;;;;5.92;100.00;98688.47;4884543;28;20178;-78
2023/10/20 09:46:53;;;;;;;2.22;1.58;;;;;;;5.91;100.00;98674.50;4895519;29;20449;-77
2023/10/20 09:49:26;;;;;;;5.65;2.88;;;;;;;5.91;100.00;98673.66;4928009;29;20043;-77
2023/10/20 09:51:55;;;;;;;8.27;1.85;;;;;;;5.90;100.00;98690.22;4934351;28;20039;-77
2023/10/20 09:54:27;;;;;;;41.28;4.25;;;;;;;5.90;100.00;98674.53;4944844;29;20454;-78
2023/10/20 09:56:56;;;;;;;3.22;1.80;;;;;;;5.92;100.00;98685.84;4916831;29;20051;-78
2023/10/20 09:59:27;;;;;;;3.00;1.48;;;;;;;5.91;100.00;98689.34;4898801;29;20055;-77
2023/10/20 10:02:02;;;;;;;2.03;1.73;;;;;;;5.91;100.00;98681.50;4859270;29;20055;-79
2023/10/20 10:04:36;;;;;;;2.78;1.60;;;;;;;5.97;100.00;98691.91;4927572;29;20540;-78
2023/10/20 10:07:08;;;;;;;5.38;1.90;;;;;;;6.01;100.00;98691.84;4908699;29;20055;-77
2023/10/20 10:09:37;;;;;;;3.30;1.92;;;;;;;6.02;100.00;98684.88;4943744;29;20234;-77
2023/10/20 10:12:18;;;;;;;2.45;1.60;;;;;;;6.00;100.00;98678.78;4906996;29;20794;-78
2023/10/20 10:15:05;;;;;;;2.47;1.80;;;;;;;6.00;100.00;98681.41;4936331;28;20043;-78
2023/10/20 10:17:47;;;;;;;2.50;1.98;;;;;;;5.99;100.00;98662.25;4878895;29;20059;-77
2023/10/20 10:20:19;;;;;;;4.57;2.20;;;;;;;5.99;100.00;98663.97;4929275;29;20067;-77
2023/10/20 10:22:59;;;;;;;1.85;1.75;;;;;;;6.04;100.00;98668.25;4887850;29;20051;-76
2023/10/20 10:25:34;;;;;;;1.73;1.38;;;;;;;6.05;100.00;98661.31;4911978;29;20059;-77
2023/10/20 10:28:09;;;;;;;1.63;1.40;;;;;;;6.06;100.00;98686.56;4923546;29;20497;-77
2023/10/20 10:30:37;;;;;;;3.50;1.42;;;;;;;6.05;100.00;98683.09;4915081;29;20047;-77
2023/10/20 10:33:10;;;;;;;4.38;1.80;;;;;;;6.05;100.00;98663.91;4866475;28;20048;-76
2023/10/20 10:35:39;;;;;;;4.72;1.83;;;;;;;6.05;100.00;98669.16;4930925;29;20445;-77
2023/10/20 10:38:20;;;;;;;3.40;2.30;;;;;;;6.10;100.00;98662.09;4915458;29;20860;-78
2023/10/20 10:40:51;;;;;;;2.08;1.65;;;;;;;6.13;100.00;98662.06;4948732;29;20043;-77
2023/10/20 10:43:21;;;;;;;3.13;2.08;;;;;;;6.15;100.00;98662.91;4938163;28;20055;-78
2023/10/20 10:45:54;;;;;;;2.22;1.55;;;;;;;6.16;100.00;98653.28;4942167;29;20055;-77
2023/10/20 10:48:27;;;;;;;4.63;1.58;;;;;;;6.16;100.00;98632.38;4891687;29;20055;-79
2023/10/20 10:50:56;;;;;;;5.72;1.95;;;;;;;6.13;100.00;98630.69;4934170;28;20043;-77
2023/10/20 10:53:26;;;;;;;2.03;1.67;;;;;;;6.11;100.00;98642.91;4934525;28;20043;-79
2023/10/20 10:55:54;;;;;;;1.75;1.65;;;;;;;6.08;100.00;98629.00;4946095;28;20066;-77
2023/10/20 10:58:23;;;;;;;1.58;1.48;;;;;;;6.10;100.00;98625.47;4931704;28;20074;-78
2023/10/20 11:00:50;;;;;;;3.28;2.10;;;;;;;6.12;100.00;98613.25;4914851;29;20302;-77
2023/10/20 11:03:19;;;;;;;2.25;1.30;;;;;;;6.12;100.00;98600.16;4903018;28;20051;-77
2023/10/20 11:05:51;;;;;;;2.30;1.42;;;;;;;6.06;100.00;98600.28;4919754;29;20079;-76
2023/10/20 11:08:19;;;;;;;1.63;1.52;;;;;;;6.05;100.00;98598.56;4919021;29;20062;-78
2023/10/20 11:10:46;;;;;;;1.52;1.35;;;;;;;6.05;100.00;98615.09;4915738;29;20059;-77
2023/10/20 11:13:16;;;;;;;1.33;1.23;;;;;;;6.04;100.00;98630.81;4943877;28;20047;-78
2023/10/20 11:15:49;;;;;;;2.70;1.23;;;;;;;5.99;100.00;98593.38;4931517;29;20060;-78
2023/10/20 11:18:16;;;;;;;1.40;1.30;;;;;;;5.99;100.00;98607.34;4934049;29;20521;-77
2023/10/20 11:20:49;;;;;;;2.45;1.38;;;;;;;5.99;100.00;98582.94;4899049;28;20057;-77
2023/10/20 11:23:27;;;;;;;3.83;2.30;;;;;;;6.02;100.00;98580.28;4929682;29;20051;-77
2023/10/20 11:25:56;;;;;;;2.00;1.30;;;;;;;6.02;100.00;98573.31;4905551;29;20059;-77
2023/10/20 11:28:26;;;;;;;3.53;1.67;;;;;;;6.00;100.00;98590.75;4924586;29;20066;-77
2023/10/20 11:30:55;;;;;;;3.42;1.30;;;;;;;6.00;100.00;98582.06;4901877;28;20055;-77
2023/10/20 11:33:22;;;;;;;1.75;1.13;;;;;;;5.98;100.00;98557.69;4912389;29;20047;-78
2023/10/20 11:35:52;;;;;;;4.65;1.70;;;;;;;5.97;100.00;98563.78;4874295;29;20054;-77
2023/10/20 11:38:19;;;;;;;7.13;1.52;;;;;;;5.97;100.00;98563.78;4904453;29;20058;-77
2023/10/20 11:40:49;;;;;;;6.30;1.50;;;;;;;5.97;100.00;98566.41;4921475;29;20047;-77
2023/10/20 11:43:17;;;;;;;6.88;1.60;;;;;;;5.98;100.00;98550.72;4948016;29;20489;-78
2023/10/20 11:45:45;;;;;;;5.88;1.65;;;;;;;5.97;100.00;98537.66;4918018;29;20055;-77
2023/10/20 11:48:12;;;;;;;7.78;1.75;;;;;;;5.96;100.00;98542.03;4927898;29;20047;-77
2023/10/20 11:50:40;;;;;;;5.20;2.20;;;;;;;5.97;100.00;98535.94;4872341;29;20058;-78
2023/10/20 11:53:07;;;;;;;14.70;2.13;;;;;;;6.00;100.00;98537.63;4908884;29;20051;-77
2023/10/20 11:55:34;;;;;;;5.65;1.95;;;;;;;6.01;100.00;98534.09;4923037;29;20047;-78
2023/10/20 11:58:04;;;;;;;6.78;1.48;;;;;;;5.99;100.00;98525.41;4917809;28;20089;-76
2023/10/20 12:00:31;;;;;;;3.30;1.80;;;;;;;5.94;100.00;98511.53;4899359;29;20524;-77
2023/10/20 12:02:59;;;;;;;5.22;1.13;;;;;;;5.89;100.00;98503.75;4908513;28;20044;-77
2023/10/20 12:05:27;;;;;;;4.40;1.40;;;;;;;5.88;100.00;98517.72;4928009;29;20058;-77
2023/10/20 12:07:54;;;;;;;1.90;1.17;;;;;;;5.88;100.00;98488.09;4880704;28;20062;-77
2023/10/20 12:10:23;;;;;;;6.60;1.45;;;;;;;5.86;100.00;98482.91;4910166;29;20047;-77
2023/10/20 12:12:51;;;;;;;1.33;1.23;;;;;;;5.86;100.00;98469.84;4913459;29;20039;-77